Time;durP1;ratioP1;P1;durP2;ratioP2;P2;SDS_P1;SDS_P2;PMS_P1;PMS_P2;Temp;Humidity;BMP_temperature;BMP_pressure;BME280_temperature;BME280_humidity;BME280_pressure;Samples;Min_cycle;Max_cycle;Signal;HPM_P1;HPM_P2
2022/02/11 00:08:20;;;;;;;4.43;1.05;;;5.50;99.90;;;;;;5035920;28;20033;-40
2022/02/11 00:10:45;;;;;;;9.52;1.45;;;5.50;99.90;;;;;;5036051;28;20021;-56
2022/02/11 00:13:11;;;;;;;18.27;1.63;;;5.60;99.90;;;;;;5035872;28;20025;-39
2022/02/11 00:15:43;;;;;;;11.52;1.42;;;5.60;99.90;;;;;;5035845;28;20105;-40
2022/02/11 00:18:12;;;;;;;13.52;1.95;;;5.60;99.90;;;;;;5035616;28;20017;-40
2022/02/11 00:20:38;;;;;;;6.13;0.95;;;5.60;99.90;;;;;;5034831;28;20410;-36
2022/02/11 00:23:06;;;;;;;6.05;1.05;;;5.70;99.90;;;;;;5035796;28;20458;-39
2022/02/11 00:25:38;;;;;;;6.60;1.25;;;5.80;99.90;;;;;;5034406;28;20082;-39
2022/02/11 00:29:07;;;;;;;2.95;0.63;;;5.80;99.90;;;;;;5035176;28;20116;-39
2022/02/11 00:33:38;;;;;;;6.32;0.85;;;6.00;99.90;;;;;;5033833;28;20083;-37
2022/02/11 00:36:07;;;;;;;5.20;1.70;;;6.10;99.90;;;;;;5035619;28;20029;-37
2022/02/11 00:39:00;;;;;;;5.97;1.67;;;6.10;99.90;;;;;;5034945;28;20529;-38
2022/02/11 01:03:02;;;;;;;3.03;1.05;;;6.40;99.90;;;;;;5029086;28;20103;-36
2022/02/11 01:05:28;;;;;;;10.95;1.42;;;6.30;99.90;;;;;;5033492;28;20084;-36
2022/02/11 01:07:54;;;;;;;8.73;1.23;;;6.10;99.90;;;;;;5028127;28;20076;-37
2022/02/11 01:10:22;;;;;;;8.07;1.15;;;6.10;99.90;;;;;;5015571;28;20026;-36
2022/02/11 01:12:47;;;;;;;10.20;0.97;;;6.00;99.90;;;;;;5034708;28;20018;-55
2022/02/11 01:15:13;;;;;;;9.40;1.67;;;6.00;99.90;;;;;;5034471;28;20632;-39
2022/02/11 01:17:44;;;;;;;5.47;1.35;;;6.10;99.90;;;;;;5034558;28;20031;-42
2022/02/11 01:20:29;;;;;;;3.85;1.25;;;6.10;99.90;;;;;;5028228;28;20080;-55
2022/02/11 01:25:53;;;;;;;14.82;2.10;;;6.30;99.90;;;;;;5015167;28;20026;-41
2022/02/11 01:38:51;;;;;;;6.70;1.00;;;5.80;99.90;;;;;;5016696;28;20084;-38
2022/02/11 01:57:15;;;;;;;2.75;0.82;;;5.10;99.90;;;;;;5034030;28;20108;-38
2022/02/11 02:05:50;;;;;;;14.45;1.30;;;5.20;99.90;;;;;;5013862;28;20109;-37
2022/02/11 02:11:46;;;;;;;13.27;2.03;;;5.30;99.90;;;;;;5013995;28;20044;-37
2022/02/11 02:14:33;;;;;;;11.07;1.25;;;5.30;99.90;;;;;;5014305;28;20033;-37
2022/02/11 03:00:16;;;;;;;14.00;1.60;;;5.90;99.90;;;;;;5018030;28;20434;-37
2022/02/11 03:49:23;;;;;;;12.48;1.55;;;5.80;99.90;;;;;;5038969;28;20156;-37
2022/02/11 03:52:17;;;;;;;10.85;1.95;;;5.90;99.90;;;;;;5029530;28;20101;-58
2022/02/11 04:56:40;;;;;;;9.07;1.25;;;5.70;99.90;;;;;;5033974;28;20061;-39
2022/02/11 05:01:50;;;;;;;9.18;1.63;;;5.70;99.90;;;;;;5019697;28;20041;-47
2022/02/11 05:04:17;;;;;;;10.88;1.25;;;5.70;99.90;;;;;;5023939;28;20018;-36
2022/02/11 05:06:42;;;;;;;8.55;1.17;;;5.70;99.90;;;;;;5034791;28;20445;-37
2022/02/11 05:09:08;;;;;;;4.78;0.98;;;5.60;99.90;;;;;;5028073;28;20038;-38
2022/02/11 05:11:33;;;;;;;15.02;2.25;;;5.60;99.90;;;;;;5014900;28;20085;-40
2022/02/11 05:13:59;;;;;;;15.02;2.95;;;5.50;99.90;;;;;;5020905;28;20101;-38
2022/02/11 05:16:25;;;;;;;14.88;1.73;;;5.50;99.90;;;;;;5034456;28;20034;-37
2022/02/11 05:18:50;;;;;;;10.18;1.67;;;5.60;99.90;;;;;;5020905;28;20128;-38
2022/02/11 05:21:16;;;;;;;19.20;1.40;;;5.50;99.90;;;;;;5029429;28;20045;-37
2022/02/11 05:23:42;;;;;;;6.07;1.42;;;5.50;99.90;;;;;;5034576;28;20056;-37
2022/02/11 05:26:07;;;;;;;7.97;1.00;;;5.50;99.90;;;;;;5033554;28;20022;-42
2022/02/11 05:28:33;;;;;;;5.50;1.23;;;5.50;99.90;;;;;;5034308;28;20071;-37
2022/02/11 05:30:59;;;;;;;18.10;1.80;;;5.50;99.90;;;;;;5019901;28;20034;-36
2022/02/11 05:33:25;;;;;;;13.45;1.90;;;5.40;99.90;;;;;;5014559;28;20169;-37
2022/02/11 05:35:51;;;;;;;14.93;1.35;;;5.50;99.90;;;;;;5018751;28;20036;-37
2022/02/11 05:38:17;;;;;;;12.88;1.23;;;5.40;99.90;;;;;;5034211;28;20030;-37
2022/02/11 05:40:44;;;;;;;10.55;1.85;;;5.50;99.90;;;;;;5034122;28;20033;-38
2022/02/11 05:43:10;;;;;;;3.05;1.42;;;5.50;99.90;;;;;;5034390;28;20120;-39
2022/02/11 05:45:36;;;;;;;7.38;0.93;;;5.40;99.90;;;;;;5034363;28;20037;-37
2022/02/11 05:48:01;;;;;;;10.98;1.60;;;5.40;99.90;;;;;;5032620;28;20120;-38
2022/02/11 05:50:27;;;;;;;6.03;1.80;;;5.20;99.90;;;;;;5027238;28;20046;-38
2022/02/11 05:52:52;;;;;;;6.72;1.50;;;5.10;99.90;;;;;;5014502;28;20045;-38
2022/02/11 05:55:18;;;;;;;6.72;1.40;;;5.00;99.90;;;;;;5014390;28;20109;-37
2022/02/11 05:57:44;;;;;;;13.23;1.77;;;4.80;99.90;;;;;;5014132;28;20474;-54
2022/02/11 06:00:10;;;;;;;17.15;1.13;;;4.80;99.90;;;;;;5031231;28;20397;-37
2022/02/11 06:02:35;;;;;;;7.93;1.05;;;4.80;99.90;;;;;;5033637;28;20032;-38
2022/02/11 06:05:01;;;;;;;11.55;2.72;;;4.70;99.90;;;;;;5033837;28;20103;-38
2022/02/11 06:07:27;;;;;;;16.38;1.77;;;4.70;99.90;;;;;;5033595;28;20033;-39
2022/02/11 06:09:53;;;;;;;11.43;1.63;;;4.70;99.90;;;;;;5022940;28;20024;-38
2022/02/11 06:12:18;;;;;;;17.45;1.58;;;4.70;99.90;;;;;;5032029;28;20394;-39
2022/02/11 06:14:45;;;;;;;14.18;2.05;;;4.70;99.90;;;;;;5033570;28;20018;-38
2022/02/11 06:17:11;;;;;;;8.48;2.03;;;4.70;99.90;;;;;;5016313;28;20030;-35
2022/02/11 06:19:36;;;;;;;14.40;1.30;;;4.70;99.90;;;;;;5031362;28;20509;-37
2022/02/11 06:22:02;;;;;;;13.23;2.92;;;4.70;99.90;;;;;;5033377;28;20608;-38
2022/02/11 06:24:28;;;;;;;7.80;2.35;;;4.60;99.90;;;;;;5033356;28;20025;-38
2022/02/11 06:26:53;;;;;;;14.00;1.85;;;4.70;99.90;;;;;;5033503;28;20026;-38
2022/02/11 06:29:19;;;;;;;9.25;1.95;;;4.60;99.90;;;;;;5032579;28;20024;-38
2022/02/11 06:31:45;;;;;;;15.05;1.58;;;4.60;99.90;;;;;;5033190;28;20021;-37
2022/02/11 06:34:11;;;;;;;7.50;1.33;;;4.60;99.90;;;;;;5033148;28;20079;-38
2022/02/11 06:36:36;;;;;;;6.90;1.58;;;4.70;99.90;;;;;;5032753;28;20029;-37
2022/02/11 06:39:02;;;;;;;16.92;2.75;;;4.70;99.90;;;;;;5033171;28;20025;-37
2022/02/11 06:41:28;;;;;;;14.35;1.60;;;4.70;99.90;;;;;;5033061;28;20473;-40
2022/02/11 06:43:54;;;;;;;4.30;1.13;;;4.70;99.90;;;;;;5033348;28;20079;-38
2022/02/11 06:46:21;;;;;;;10.02;1.42;;;4.70;99.90;;;;;;5032846;28;20088;-37
2022/02/11 06:48:48;;;;;;;16.70;1.92;;;4.70;99.90;;;;;;5023174;28;20085;-37
2022/02/11 06:51:14;;;;;;;9.43;1.80;;;4.70;99.90;;;;;;5013455;28;20017;-38
2022/02/11 06:53:40;;;;;;;20.60;1.77;;;4.80;99.90;;;;;;5013239;28;20475;-38
2022/02/11 06:56:06;;;;;;;5.70;1.00;;;4.80;99.90;;;;;;5013217;28;20025;-36
2022/02/11 06:58:31;;;;;;;16.02;2.05;;;4.80;99.90;;;;;;5013068;28;20022;-53
2022/02/11 07:00:57;;;;;;;11.10;2.00;;;4.90;99.90;;;;;;5012988;28;20037;-38
2022/02/11 07:03:26;;;;;;;21.50;2.28;;;4.90;99.90;;;;;;5027651;28;20212;-38
2022/02/11 07:05:54;;;;;;;11.05;1.33;;;4.80;99.90;;;;;;5032681;28;20416;-38
2022/02/11 07:08:19;;;;;;;4.63;0.68;;;4.70;99.90;;;;;;5030773;28;20540;-38
2022/02/11 07:10:45;;;;;;;7.85;0.85;;;4.60;99.90;;;;;;5031914;28;20041;-38
2022/02/11 07:13:14;;;;;;;7.13;1.23;;;4.50;99.90;;;;;;5032642;28;20065;-35
2022/02/11 07:15:44;;;;;;;13.68;1.52;;;4.50;99.90;;;;;;5032725;28;20029;-37
2022/02/11 07:18:11;;;;;;;4.97;0.93;;;4.50;99.90;;;;;;5032552;28;20124;-38
2022/02/11 07:20:37;;;;;;;10.27;1.00;;;4.40;99.90;;;;;;5032359;28;20069;-38
2022/02/11 07:23:03;;;;;;;7.43;0.98;;;4.40;99.90;;;;;;5032539;28;20030;-37
2022/02/11 07:25:29;;;;;;;8.00;0.95;;;4.30;99.90;;;;;;5030967;28;20030;-39
2022/02/11 07:27:55;;;;;;;5.57;0.93;;;4.20;99.90;;;;;;5032443;28;20108;-36
2022/02/11 07:30:20;;;;;;;17.80;1.58;;;4.10;99.90;;;;;;5032401;28;20032;-38
2022/02/11 07:32:47;;;;;;;5.07;1.23;;;4.10;99.90;;;;;;5032386;28;20018;-46
2022/02/11 07:35:13;;;;;;;8.63;1.60;;;4.20;99.90;;;;;;5032446;28;20014;-37
2022/02/11 07:37:38;;;;;;;6.28;1.58;;;4.20;99.90;;;;;;5024229;28;20101;-38
2022/02/11 07:40:05;;;;;;;10.18;1.38;;;4.20;99.90;;;;;;5012596;28;20026;-37
2022/02/11 07:42:30;;;;;;;16.98;2.30;;;4.30;99.90;;;;;;5016325;28;20088;-37
2022/02/11 07:44:57;;;;;;;13.15;1.95;;;4.40;99.90;;;;;;5021824;28;20057;-37
2022/02/11 07:47:27;;;;;;;16.38;1.73;;;4.40;99.90;;;;;;5032239;28;20080;-36
2022/02/11 07:49:54;;;;;;;15.52;1.67;;;4.50;99.90;;;;;;5032164;28;20547;-36
2022/02/11 07:52:20;;;;;;;19.67;2.33;;;4.60;99.90;;;;;;5032221;28;20071;-37
2022/02/11 07:54:46;;;;;;;4.15;1.10;;;4.60;99.90;;;;;;5032311;28;20528;-37
2022/02/11 07:57:11;;;;;;;6.18;1.90;;;4.50;99.90;;;;;;5029481;28;20088;-36
2022/02/11 07:59:37;;;;;;;7.05;1.10;;;4.40;99.90;;;;;;5026989;28;20018;-37
2022/02/11 08:02:03;;;;;;;16.05;2.67;;;4.40;99.90;;;;;;5016171;28;20040;-39
2022/02/11 08:04:29;;;;;;;11.23;1.98;;;4.30;99.90;;;;;;5027202;28;20026;-44
2022/02/11 08:06:55;;;;;;;22.65;2.30;;;4.30;99.90;;;;;;5034634;28;20041;-39
2022/02/11 08:09:20;;;;;;;11.13;1.40;;;4.20;99.90;;;;;;5036135;28;20076;-38
2022/02/11 08:11:47;;;;;;;11.93;2.28;;;4.30;99.90;;;;;;5036117;28;20469;-39
2022/02/11 08:14:12;;;;;;;12.63;1.35;;;4.30;99.90;;;;;;5031209;28;20029;-43
2022/02/11 08:16:38;;;;;;;7.82;1.20;;;4.40;99.90;;;;;;5016516;28;20104;-43
2022/02/11 08:19:06;;;;;;;27.40;1.75;;;4.40;99.90;;;;;;5015831;28;20037;-53
2022/02/11 08:21:35;;;;;;;24.52;1.67;;;4.50;99.90;;;;;;5015661;28;20525;-38
2022/02/11 08:24:01;;;;;;;8.00;1.52;;;4.50;99.90;;;;;;5015266;28;20124;-38
2022/02/11 08:26:29;;;;;;;19.73;1.92;;;4.60;99.90;;;;;;5015833;28;20052;-40
2022/02/11 08:28:58;;;;;;;7.00;1.23;;;4.60;99.90;;;;;;5017278;28;20522;-38
2022/02/11 08:31:25;;;;;;;10.25;1.90;;;4.70;99.90;;;;;;5026438;28;20053;-37
2022/02/11 08:33:51;;;;;;;16.63;2.67;;;4.80;99.90;;;;;;5024698;28;20022;-38
2022/02/11 08:36:19;;;;;;;11.52;2.08;;;4.90;99.90;;;;;;5035317;28;20478;-38
2022/02/11 08:38:45;;;;;;;10.82;1.40;;;5.10;99.90;;;;;;5024050;28;20057;-38
2022/02/11 08:41:11;;;;;;;20.73;2.03;;;5.10;99.90;;;;;;5033148;28;20131;-38
2022/02/11 08:43:36;;;;;;;14.50;1.50;;;5.30;99.90;;;;;;5035253;28;20022;-37
2022/02/11 08:46:03;;;;;;;14.27;2.47;;;5.30;99.90;;;;;;5035468;28;20025;-38
2022/02/11 08:48:29;;;;;;;12.85;1.63;;;5.40;99.90;;;;;;5035219;28;20033;-39
2022/02/11 08:50:54;;;;;;;19.85;2.47;;;5.50;99.90;;;;;;5034483;28;20509;-37
2022/02/11 08:53:22;;;;;;;12.75;2.97;;;5.50;99.90;;;;;;5034880;28;20071;-37
2022/02/11 08:55:49;;;;;;;22.38;3.75;;;5.60;99.90;;;;;;5022658;28;20478;-46
2022/02/11 08:58:19;;;;;;;19.10;2.03;;;5.70;99.90;;;;;;5034880;28;20029;-37
2022/02/11 09:00:47;;;;;;;10.40;1.08;;;5.90;99.90;;;;;;5033129;28;20425;-36
2022/02/11 09:03:13;;;;;;;14.75;2.20;;;6.10;99.90;;;;;;5034903;28;20027;-49
2022/02/11 09:05:39;;;;;;;13.48;1.35;;;6.30;99.90;;;;;;5035125;28;20029;-39
2022/02/11 09:08:04;;;;;;;21.42;3.28;;;6.40;99.90;;;;;;5032602;28;20026;-39
2022/02/11 09:10:30;;;;;;;20.23;3.10;;;6.40;99.90;;;;;;5033724;28;20033;-55
2022/02/11 09:12:58;;;;;;;11.57;1.52;;;6.40;99.90;;;;;;5031909;28;20038;-51
2022/02/11 09:15:24;;;;;;;22.20;1.63;;;6.30;99.90;;;;;;5034496;28;20067;-38
2022/02/11 09:17:50;;;;;;;7.10;1.48;;;6.30;99.90;;;;;;5028761;28;20552;-37
2022/02/11 09:20:17;;;;;;;13.20;1.42;;;6.30;99.90;;;;;;5031779;28;20077;-38
2022/02/11 09:22:44;;;;;;;11.52;1.67;;;6.20;99.90;;;;;;5032492;28;20026;-39
2022/02/11 09:25:11;;;;;;;14.35;2.17;;;6.30;99.90;;;;;;5034428;28;20394;-36
2022/02/11 09:27:43;;;;;;;17.67;2.20;;;6.30;99.90;;;;;;5026333;28;20025;-38
2022/02/11 09:30:20;;;;;;;13.50;1.42;;;6.40;99.90;;;;;;5014669;28;20308;-47
2022/02/11 09:32:48;;;;;;;9.60;1.20;;;6.40;99.90;;;;;;5016019;28;20026;-38
2022/02/11 09:35:14;;;;;;;;;;;6.40;99.90;;;;;;5014916;28;20071;-39
2022/02/11 09:37:40;;;;;;;25.25;1.83;;;6.50;99.90;;;;;;5015286;28;20385;-38
2022/02/11 09:40:09;;;;;;;10.13;1.75;;;6.60;99.90;;;;;;5013343;28;20568;-36
2022/02/11 09:42:36;;;;;;;10.57;1.83;;;6.70;99.90;;;;;;5014545;28;20487;-39
2022/02/11 09:45:06;;;;;;;2.35;0.90;;;6.70;99.90;;;;;;5014488;28;20478;-38
2022/02/11 09:47:33;;;;;;;9.82;1.60;;;6.70;99.90;;;;;;5012888;28;20026;-38
2022/02/11 09:49:59;;;;;;;6.55;1.33;;;6.70;99.90;;;;;;5014125;28;20108;-39
2022/02/11 09:52:27;;;;;;;7.65;1.77;;;6.70;99.90;;;;;;5018348;28;20549;-39
2022/02/11 09:55:31;;;;;;;5.85;1.73;;;6.70;99.90;;;;;;5014938;28;20025;-38
2022/02/11 09:57:43;;;;;;;8.93;1.35;;;6.70;99.90;;;;;;5022952;28;20386;-39
2022/02/11 10:00:10;;;;;;;2.85;1.10;;;6.80;99.90;;;;;;5033726;28;20036;-38
2022/02/11 10:02:54;;;;;;;5.60;0.63;;;6.80;99.90;;;;;;5033805;28;20041;-38
2022/02/11 10:05:24;;;;;;;11.00;1.38;;;6.80;99.90;;;;;;5033705;28;20033;-38
2022/02/11 10:07:50;;;;;;;7.60;1.08;;;7.00;99.90;;;;;;5033648;28;20108;-38
2022/02/11 10:10:38;;;;;;;9.25;1.23;;;7.20;99.90;;;;;;5033801;28;20129;-37
2022/02/11 10:13:05;;;;;;;10.13;1.55;;;7.30;99.90;;;;;;5030473;28;20088;-39
2022/02/11 10:15:31;;;;;;;;;;;7.30;99.90;;;;;;5020803;28;20026;-38
2022/02/11 10:17:58;;;;;;;9.93;1.33;;;7.10;99.90;;;;;;5032487;28;20005;-39
2022/02/11 10:20:24;;;;;;;8.85;1.08;;;7.00;99.90;;;;;;5029195;28;20049;-38
2022/02/11 10:22:49;;;;;;;5.13;1.17;;;6.90;99.90;;;;;;5015255;28;20076;-39
2022/02/11 10:25:15;;;;;;;10.20;1.52;;;6.80;99.90;;;;;;5017803;28;20057;-39
2022/02/11 10:27:41;;;;;;;7.35;1.58;;;6.70;99.90;;;;;;5033300;28;20426;-56
2022/02/11 10:30:10;;;;;;;15.30;1.85;;;6.60;99.90;;;;;;5032990;28;20018;-40
2022/02/11 10:32:49;;;;;;;21.45;1.95;;;6.60;99.90;;;;;;5031685;28;20506;-38
2022/02/11 10:35:17;;;;;;;7.07;0.95;;;6.60;99.90;;;;;;5033429;28;20535;-39
2022/02/11 10:38:09;;;;;;;11.25;1.30;;;6.70;99.90;;;;;;5019701;28;20417;-38
2022/02/11 10:40:38;;;;;;;10.68;1.13;;;6.70;99.90;;;;;;5025021;28;20056;-40
2022/02/11 10:43:16;;;;;;;16.52;1.77;;;6.70;99.90;;;;;;5023392;28;20504;-50
2022/02/11 10:45:42;;;;;;;15.30;1.25;;;6.70;99.90;;;;;;5032981;28;20075;-46
2022/02/11 10:48:18;;;;;;;9.65;1.10;;;6.70;99.90;;;;;;5032827;28;20037;-39
2022/02/11 10:50:52;;;;;;;8.93;1.25;;;6.90;99.90;;;;;;5013510;28;20030;-41
2022/02/11 10:53:23;;;;;;;3.28;0.73;;;6.90;99.90;;;;;;5029352;28;20018;-42
2022/02/11 10:55:50;;;;;;;10.52;1.08;;;7.00;99.90;;;;;;5030162;28;20043;-38
2022/02/11 10:58:18;;;;;;;10.32;0.75;;;6.90;99.90;;;;;;5014123;28;20030;-37
2022/02/11 11:00:44;;;;;;;8.98;2.03;;;7.00;99.90;;;;;;5024995;28;20025;-39
2022/02/11 11:03:13;;;;;;;8.50;1.08;;;7.10;99.90;;;;;;5028103;28;20497;-38
2022/02/11 11:05:41;;;;;;;8.00;1.00;;;7.10;99.90;;;;;;5031624;28;20045;-39
2022/02/11 11:08:13;;;;;;;9.18;1.35;;;7.20;99.90;;;;;;5032720;28;20032;-39
2022/02/11 11:10:41;;;;;;;11.25;1.27;;;7.30;99.90;;;;;;5033043;28;20025;-38
2022/02/11 11:13:11;;;;;;;7.05;1.40;;;7.30;99.90;;;;;;5032949;28;20394;-39
2022/02/11 11:15:37;;;;;;;12.40;1.50;;;7.30;99.90;;;;;;5031999;28;20053;-38
2022/02/11 11:18:06;;;;;;;4.93;0.80;;;7.40;99.90;;;;;;5032692;28;20033;-42
2022/02/11 11:20:36;;;;;;;5.85;0.80;;;7.60;99.90;;;;;;5023152;28;20514;-40
2022/02/11 11:23:08;;;;;;;8.70;0.98;;;7.70;99.90;;;;;;5021720;28;20478;-38
2022/02/11 11:25:53;;;;;;;3.50;0.63;;;7.80;99.90;;;;;;5018060;28;20057;-38
2022/02/11 11:28:37;;;;;;;12.13;2.83;;;7.90;99.90;;;;;;5027804;28;20028;-39
2022/02/11 11:31:12;;;;;;;3.47;1.08;;;7.70;99.90;;;;;;5027068;28;20025;-38
2022/02/11 11:33:39;;;;;;;3.42;1.15;;;7.80;99.90;;;;;;5030829;28;20101;-39
2022/02/11 11:36:07;;;;;;;9.20;1.70;;;7.90;99.90;;;;;;5029947;28;20024;-38
2022/02/11 11:38:54;;;;;;;12.45;1.17;;;7.90;99.90;;;;;;5022851;28;20080;-43
2022/02/11 11:41:21;;;;;;;8.90;1.10;;;7.90;99.90;;;;;;5017249;28;20026;-38
2022/02/11 11:43:55;;;;;;;7.07;1.88;;;7.80;99.90;;;;;;5025839;28;20048;-38
2022/02/11 11:46:20;;;;;;;8.18;0.82;;;7.70;99.90;;;;;;5033812;28;20033;-39
2022/02/11 11:49:10;;;;;;;6.95;1.55;;;7.60;99.90;;;;;;5018414;28;20030;-39
2022/02/11 11:51:35;;;;;;;10.63;1.15;;;7.60;99.90;;;;;;5028906;28;20030;-40
2022/02/11 11:54:21;;;;;;;11.73;1.10;;;7.70;99.90;;;;;;5029643;28;20018;-37
2022/02/11 11:57:00;;;;;;;3.78;0.95;;;7.70;99.90;;;;;;5032389;28;20036;-40
2022/02/11 11:59:31;;;;;;;5.43;1.55;;;7.80;99.90;;;;;;5025596;28;20084;-39
2022/02/11 12:02:01;;;;;;;10.38;1.35;;;7.80;99.90;;;;;;5022547;28;20045;-40
2022/02/11 12:04:31;;;;;;;5.13;1.23;;;7.90;99.90;;;;;;5032839;28;20030;-41
2022/02/11 12:07:05;;;;;;;6.57;1.00;;;7.90;99.90;;;;;;5029987;28;20071;-39
2022/02/11 12:09:32;;;;;;;7.80;0.80;;;7.80;99.90;;;;;;5032466;28;20029;-43
2022/02/11 12:12:09;;;;;;;5.47;0.70;;;8.00;99.90;;;;;;5035747;28;20040;-38
2022/02/11 12:14:45;;;;;;;4.65;1.42;;;8.00;99.90;;;;;;5024512;28;20029;-39
2022/02/11 12:17:13;;;;;;;9.23;1.45;;;8.00;99.90;;;;;;5034788;28;20036;-39
2022/02/11 12:19:40;;;;;;;14.98;1.42;;;7.90;99.90;;;;;;5035204;28;20038;-38
2022/02/11 12:22:07;;;;;;;12.02;2.55;;;7.80;99.90;;;;;;5035625;28;20539;-37
2022/02/11 12:27:30;;;;;;;5.10;0.93;;;7.80;99.90;;;;;;5034229;28;20045;-38
2022/02/11 12:29:57;;;;;;;8.75;1.13;;;8.00;99.90;;;;;;5035413;28;20455;-45
2022/02/11 12:32:33;;;;;;;9.00;1.15;;;8.40;99.90;;;;;;5030477;28;20025;-38
2022/02/11 12:35:01;;;;;;;2.58;1.15;;;8.80;99.90;;;;;;5015945;28;20081;-45
2022/02/11 12:37:28;;;;;;;8.70;1.00;;;8.90;99.90;;;;;;5014500;28;20475;-37
2022/02/11 12:40:22;;;;;;;3.22;0.52;;;8.70;99.90;;;;;;5029050;28;20482;-38
2022/02/11 12:42:49;;;;;;;5.97;1.10;;;8.10;99.90;;;;;;5035189;28;20026;-38
2022/02/11 12:45:21;;;;;;;11.27;1.17;;;8.10;99.90;;;;;;5034212;28;20022;-38
2022/02/11 12:47:47;;;;;;;6.63;1.20;;;8.10;99.90;;;;;;5034905;28;20545;-38
2022/02/11 12:50:12;;;;;;;6.95;1.00;;;8.10;99.90;;;;;;5035126;28;20100;-36
2022/02/11 12:52:39;;;;;;;5.03;0.85;;;8.00;99.90;;;;;;5016950;28;20026;-37
2022/02/11 12:55:11;;;;;;;15.20;1.95;;;8.00;99.90;;;;;;5015295;28;20022;-38
2022/02/11 12:57:40;;;;;;;9.27;1.70;;;8.00;99.90;;;;;;5013976;28;20479;-38
2022/02/11 13:00:11;;;;;;;7.85;0.93;;;7.80;99.90;;;;;;5031380;28;20029;-38
2022/02/11 13:02:37;;;;;;;11.52;1.48;;;7.60;99.90;;;;;;5015215;28;20026;-39
2022/02/11 13:05:10;;;;;;;3.40;1.38;;;7.60;99.90;;;;;;5021048;28;20022;-39
2022/02/11 13:07:38;;;;;;;9.32;1.48;;;7.40;99.90;;;;;;5015044;28;20394;-39
2022/02/11 13:10:06;;;;;;;4.38;0.88;;;7.30;99.90;;;;;;5015270;28;20517;-38
2022/02/11 13:12:43;;;;;;;4.28;1.33;;;7.40;99.90;;;;;;5013797;28;20116;-39
2022/02/11 13:15:13;;;;;;;11.80;1.30;;;7.40;99.90;;;;;;5016149;28;20013;-40
2022/02/11 13:17:41;;;;;;;17.05;1.75;;;7.50;99.90;;;;;;5034652;28;20091;-40
2022/02/11 13:20:21;;;;;;;8.02;1.05;;;7.70;99.90;;;;;;5032896;28;20041;-42
2022/02/11 13:22:50;;;;;;;6.10;1.77;;;7.90;99.90;;;;;;5034481;28;20017;-40
2022/02/11 13:25:18;;;;;;;9.23;0.68;;;8.00;99.90;;;;;;5034465;28;20022;-40
2022/02/11 13:27:46;;;;;;;6.40;0.90;;;8.00;99.90;;;;;;5034380;28;20031;-47
2022/02/11 13:30:13;;;;;;;;;;;7.80;99.90;;;;;;5035013;28;20543;-39
2022/02/11 13:32:40;;;;;;;8.95;0.85;;;7.80;99.90;;;;;;5034359;28;19980;-36
2022/02/11 13:35:08;;;;;;;4.45;0.70;;;7.80;99.90;;;;;;5034589;28;20559;-39
2022/02/11 13:37:45;;;;;;;11.15;1.00;;;7.60;99.90;;;;;;5034161;28;20033;-39
2022/02/11 13:40:14;;;;;;;7.07;1.13;;;7.50;99.90;;;;;;5033447;28;20384;-39
2022/02/11 13:42:40;;;;;;;4.55;0.73;;;7.30;99.90;;;;;;5034346;28;20030;-39
2022/02/11 13:45:08;;;;;;;15.13;1.33;;;7.30;99.90;;;;;;5031692;28;20394;-38
2022/02/11 13:47:34;;;;;;;3.63;1.30;;;7.20;99.90;;;;;;5034094;28;20029;-48
2022/02/11 13:50:05;;;;;;;4.15;1.00;;;7.50;99.90;;;;;;5034144;28;20026;-39
2022/02/11 13:53:06;;;;;;;3.05;1.10;;;7.70;99.90;;;;;;5031422;28;20577;-39
2022/02/11 13:55:32;;;;;;;3.50;0.80;;;7.90;99.90;;;;;;5014657;28;20022;-38
2022/02/11 13:58:15;;;;;;;6.68;0.95;;;8.10;99.90;;;;;;5014073;28;20030;-39
2022/02/11 14:00:42;;;;;;;7.00;2.05;;;8.00;99.90;;;;;;5020384;28;20030;-42
2022/02/11 14:03:17;;;;;;;7.00;0.88;;;7.90;99.90;;;;;;5029620;28;20032;-39
2022/02/11 14:05:44;;;;;;;4.43;0.82;;;8.00;99.90;;;;;;5030715;28;20037;-39
2022/02/11 14:08:10;;;;;;;2.85;0.70;;;7.90;99.90;;;;;;5044421;28;20037;-39
2022/02/11 14:10:35;;;;;;;6.88;0.70;;;7.90;99.90;;;;;;5033600;28;20482;-37
2022/02/11 14:13:09;;;;;;;6.43;1.00;;;7.90;99.90;;;;;;5031525;28;20017;-38
2022/02/11 14:15:36;;;;;;;4.25;0.73;;;7.90;99.90;;;;;;5029163;28;20018;-39
2022/02/11 14:18:05;;;;;;;2.42;0.75;;;7.90;99.90;;;;;;5026073;28;20474;-38
2022/02/11 14:20:34;;;;;;;6.43;0.63;;;7.90;99.90;;;;;;5031409;28;20049;-33
2022/02/11 14:23:17;;;;;;;6.22;1.02;;;7.90;99.90;;;;;;5015895;28;20207;-39
2022/02/11 14:25:46;;;;;;;5.55;0.75;;;7.80;99.90;;;;;;5025904;28;20032;-39
2022/02/11 14:28:12;;;;;;;1.23;0.50;;;7.80;99.90;;;;;;5032769;28;20025;-39
2022/02/11 14:30:42;;;;;;;8.25;1.00;;;7.90;99.90;;;;;;5032297;28;20108;-41
2022/02/11 14:33:12;;;;;;;2.97;0.90;;;8.20;99.90;;;;;;5031858;28;20021;-39
2022/02/11 14:35:38;;;;;;;9.20;1.05;;;8.50;99.90;;;;;;5031505;28;20151;-47
2022/02/11 14:38:04;;;;;;;13.88;1.63;;;8.60;99.90;;;;;;5031847;28;20112;-46
2022/02/11 14:40:31;;;;;;;16.55;2.55;;;8.70;99.90;;;;;;5025411;28;20046;-38
2022/02/11 14:42:57;;;;;;;12.68;0.95;;;8.70;99.90;;;;;;5013452;28;20072;-40
2022/02/11 14:45:23;;;;;;;8.50;2.53;;;8.80;99.90;;;;;;5013305;28;20475;-40
2022/02/11 14:47:49;;;;;;;7.22;0.80;;;8.70;99.90;;;;;;5026526;28;20048;-42
2022/02/11 14:50:14;;;;;;;6.80;0.63;;;8.40;99.90;;;;;;5024085;28;20115;-38
2022/02/11 14:52:41;;;;;;;5.63;1.38;;;8.50;99.90;;;;;;5021908;28;20026;-50
2022/02/11 14:55:07;;;;;;;3.83;0.93;;;8.50;99.90;;;;;;5016873;28;20458;-38
2022/02/11 14:57:34;;;;;;;6.78;0.88;;;8.30;99.90;;;;;;5033161;28;20021;-39
2022/02/11 14:59:59;;;;;;;6.43;1.17;;;7.90;99.90;;;;;;5048051;28;20025;-40
2022/02/11 15:02:26;;;;;;;8.32;1.20;;;7.80;99.90;;;;;;5052797;28;20381;-39
2022/02/11 15:04:54;;;;;;;9.93;1.42;;;7.70;99.90;;;;;;5025381;28;20026;-39
2022/02/11 15:07:20;;;;;;;6.75;1.00;;;7.50;99.90;;;;;;5016884;28;20084;-38
2022/02/11 15:09:46;;;;;;;8.98;1.17;;;7.40;99.90;;;;;;5032101;28;20034;-37
2022/02/11 15:12:11;;;;;;;2.50;0.70;;;7.30;99.90;;;;;;5032259;28;20072;-39
2022/02/11 15:14:37;;;;;;;7.15;0.80;;;7.20;99.90;;;;;;5022570;28;20026;-38
2022/02/11 15:17:03;;;;;;;6.03;1.17;;;7.10;99.90;;;;;;5013294;28;20061;-39
2022/02/11 15:19:29;;;;;;;8.00;0.55;;;7.10;99.90;;;;;;5029279;28;20025;-38
2022/02/11 15:21:54;;;;;;;1.23;0.50;;;7.00;99.90;;;;;;5032195;28;20434;-38
2022/02/11 15:24:20;;;;;;;6.65;1.13;;;6.90;99.90;;;;;;5031512;28;20116;-38
2022/02/11 15:26:46;;;;;;;2.55;0.60;;;6.90;99.90;;;;;;5031007;28;20025;-39
2022/02/11 15:29:12;;;;;;;3.20;0.50;;;6.90;99.90;;;;;;5012753;28;20478;-38
2022/02/11 15:31:39;;;;;;;9.52;0.95;;;6.90;99.90;;;;;;5017453;28;20026;-39
2022/02/11 15:34:05;;;;;;;5.25;0.63;;;6.80;99.90;;;;;;5030710;28;20100;-44
2022/02/11 15:36:32;;;;;;;7.45;0.73;;;6.90;99.90;;;;;;5028152;28;20030;-40
2022/02/11 15:38:58;;;;;;;4.85;0.57;;;7.00;99.90;;;;;;5013614;28;20025;-47
2022/02/11 15:41:24;;;;;;;8.73;0.90;;;7.10;99.90;;;;;;5012825;28;20018;-39
2022/02/11 15:43:50;;;;;;;14.90;1.50;;;7.20;99.90;;;;;;5012848;28;20081;-38
2022/02/11 15:46:16;;;;;;;9.63;1.50;;;7.20;99.90;;;;;;5028503;28;20027;-40
2022/02/11 15:48:41;;;;;;;8.88;1.55;;;7.30;99.90;;;;;;5012713;28;20026;-38
2022/02/11 15:51:09;;;;;;;4.38;0.65;;;7.50;99.90;;;;;;5020758;28;20060;-45
2022/02/11 15:53:35;;;;;;;5.18;0.63;;;7.40;99.90;;;;;;5032544;28;20382;-38
2022/02/11 15:56:01;;;;;;;7.63;0.88;;;7.40;99.90;;;;;;5016529;28;20042;-39
2022/02/11 15:58:26;;;;;;;4.90;0.98;;;7.50;99.90;;;;;;5030999;28;20022;-39
2022/02/11 16:00:53;;;;;;;12.05;1.05;;;7.50;99.90;;;;;;5030951;28;20124;-39
2022/02/11 16:03:19;;;;;;;8.63;1.02;;;7.30;99.90;;;;;;5031822;28;20033;-38
2022/02/11 16:05:44;;;;;;;4.35;0.55;;;7.10;99.90;;;;;;5031135;28;20482;-34
2022/02/11 16:08:10;;;;;;;4.13;0.88;;;6.90;99.90;;;;;;5013536;28;20033;-38
2022/02/11 16:10:36;;;;;;;10.52;1.25;;;6.80;99.90;;;;;;5027858;28;20022;-38
2022/02/11 16:13:02;;;;;;;3.45;0.80;;;6.70;99.90;;;;;;5027355;28;20095;-38
2022/02/11 16:15:28;;;;;;;4.95;1.20;;;6.70;99.90;;;;;;5029470;28;20041;-38
2022/02/11 16:18:01;;;;;;;6.00;0.70;;;6.60;99.90;;;;;;5031254;28;20104;-40
2022/02/11 16:20:27;;;;;;;3.55;1.10;;;6.70;99.90;;;;;;5030728;28;20057;-37
2022/02/11 16:22:53;;;;;;;7.18;1.30;;;6.60;99.90;;;;;;5033783;28;20029;-38
2022/02/11 16:25:19;;;;;;;7.38;1.40;;;6.50;99.90;;;;;;5033948;28;20112;-42
2022/02/11 16:27:44;;;;;;;9.20;1.25;;;6.40;99.90;;;;;;5034151;28;20025;-39
2022/02/11 16:30:10;;;;;;;1.13;0.90;;;6.40;99.90;;;;;;5033905;28;20071;-41
2022/02/11 16:32:35;;;;;;;7.53;1.13;;;6.40;99.90;;;;;;5033399;28;20557;-39
2022/02/11 16:35:01;;;;;;;9.13;2.40;;;6.30;99.90;;;;;;5033885;28;20021;-41
2022/02/11 16:37:27;;;;;;;5.60;1.00;;;6.30;99.90;;;;;;5034840;28;20075;-43
2022/02/11 16:39:52;;;;;;;7.38;1.15;;;6.20;99.90;;;;;;5033608;28;20029;-39
2022/02/11 16:42:18;;;;;;;8.02;1.08;;;6.20;99.90;;;;;;5035068;28;20057;-42
2022/02/11 16:44:43;;;;;;;11.18;1.48;;;6.00;99.90;;;;;;5025862;28;20030;-36
2022/02/11 16:47:09;;;;;;;6.30;1.05;;;6.00;99.90;;;;;;5034144;28;20021;-37